sensor_id;sensor_type;location;lat;lon;timestamp;P1;durP1;ratioP1;P2;durP2;ratioP2
4244;SDS011;2136;48.502;9.194;2023-08-06T00:02:22;3.47;;;3.17;;
4244;SDS011;2136;48.502;9.194;2023-08-06T00:04:48;3.70;;;3.33;;
4244;SDS011;2136;48.502;9.194;2023-08-06T00:07:17;3.60;;;3.30;;
4244;SDS011;2136;48.502;9.194;2023-08-06T00:09:43;5.47;;;3.67;;
4244;SDS011;2136;48.502;9.194;2023-08-06T00:12:10;5.40;;;3.30;;
4244;SDS011;2136;48.502;9.194;2023-08-06T00:14:37;5.93;;;3.40;;
4244;SDS011;2136;48.502;9.194;2023-08-06T00:17:04;3.33;;;3.07;;
4244;SDS011;2136;48.502;9.194;2023-08-06T00:19:31;6.90;;;3.10;;
4244;SDS011;2136;48.502;9.194;2023-08-06T00:21:57;5.27;;;4.30;;
4244;SDS011;2136;48.502;9.194;2023-08-06T00:24:25;5.97;;;4.27;;
4244;SDS011;2136;48.502;9.194;2023-08-06T00:26:52;4.43;;;4.03;;
4244;SDS011;2136;48.502;9.194;2023-08-06T00:29:19;3.80;;;3.50;;
4244;SDS011;2136;48.502;9.194;2023-08-06T00:31:46;3.83;;;3.53;;
4244;SDS011;2136;48.502;9.194;2023-08-06T00:34:12;4.20;;;3.23;;
4244;SDS011;2136;48.502;9.194;2023-08-06T00:36:39;4.00;;;3.20;;
4244;SDS011;2136;48.502;9.194;2023-08-06T00:39:06;3.93;;;3.60;;
4244;SDS011;2136;48.502;9.194;2023-08-06T00:41:34;3.28;;;3.00;;
4244;SDS011;2136;48.502;9.194;2023-08-06T00:44:01;3.40;;;3.20;;
4244;SDS011;2136;48.502;9.194;2023-08-06T00:46:28;4.40;;;3.70;;
4244;SDS011;2136;48.502;9.194;2023-08-06T00:48:56;3.43;;;3.13;;
4244;SDS011;2136;48.502;9.194;2023-08-06T00:51:23;3.73;;;3.43;;
4244;SDS011;2136;48.502;9.194;2023-08-06T00:53:50;5.87;;;4.27;;
4244;SDS011;2136;48.502;9.194;2023-08-06T00:56:19;5.23;;;3.50;;
4244;SDS011;2136;48.502;9.194;2023-08-06T00:58:47;2.90;;;2.70;;
4244;SDS011;2136;48.502;9.194;2023-08-06T01:01:14;2.50;;;2.40;;
4244;SDS011;2136;48.502;9.194;2023-08-06T01:03:41;4.37;;;2.70;;
4244;SDS011;2136;48.502;9.194;2023-08-06T01:06:10;3.17;;;2.80;;
4244;SDS011;2136;48.502;9.194;2023-08-06T01:08:40;3.17;;;2.40;;
4244;SDS011;2136;48.502;9.194;2023-08-06T01:11:17;2.33;;;2.13;;
4244;SDS011;2136;48.502;9.194;2023-08-06T01:13:54;4.73;;;2.20;;
4244;SDS011;2136;48.502;9.194;2023-08-06T01:16:26;2.60;;;1.77;;
4244;SDS011;2136;48.502;9.194;2023-08-06T01:18:53;2.70;;;2.50;;
4244;SDS011;2136;48.502;9.194;2023-08-06T01:21:21;1.83;;;1.70;;
4244;SDS011;2136;48.502;9.194;2023-08-06T01:23:48;2.07;;;1.97;;
4244;SDS011;2136;48.502;9.194;2023-08-06T01:26:15;3.73;;;1.90;;
4244;SDS011;2136;48.502;9.194;2023-08-06T01:28:52;2.73;;;1.77;;
4244;SDS011;2136;48.502;9.194;2023-08-06T01:31:24;2.50;;;1.97;;
4244;SDS011;2136;48.502;9.194;2023-08-06T01:33:53;2.40;;;2.20;;
4244;SDS011;2136;48.502;9.194;2023-08-06T01:36:23;2.10;;;2.00;;
4244;SDS011;2136;48.502;9.194;2023-08-06T01:38:51;2.20;;;2.00;;
4244;SDS011;2136;48.502;9.194;2023-08-06T01:41:18;2.10;;;1.90;;
4244;SDS011;2136;48.502;9.194;2023-08-06T01:43:45;4.20;;;2.43;;
4244;SDS011;2136;48.502;9.194;2023-08-06T01:46:12;2.70;;;2.40;;
4244;SDS011;2136;48.502;9.194;2023-08-06T01:48:38;6.03;;;2.30;;
4244;SDS011;2136;48.502;9.194;2023-08-06T01:51:05;3.30;;;2.30;;
4244;SDS011;2136;48.502;9.194;2023-08-06T01:53:34;3.87;;;2.33;;
4244;SDS011;2136;48.502;9.194;2023-08-06T01:56:00;5.10;;;2.13;;
4244;SDS011;2136;48.502;9.194;2023-08-06T01:58:27;5.60;;;2.60;;
4244;SDS011;2136;48.502;9.194;2023-08-06T02:00:54;2.30;;;2.10;;
4244;SDS011;2136;48.502;9.194;2023-08-06T02:03:21;2.30;;;2.20;;
4244;SDS011;2136;48.502;9.194;2023-08-06T02:05:48;2.73;;;2.53;;
4244;SDS011;2136;48.502;9.194;2023-08-06T02:08:14;3.67;;;2.03;;
4244;SDS011;2136;48.502;9.194;2023-08-06T02:10:42;2.43;;;2.17;;
4244;SDS011;2136;48.502;9.194;2023-08-06T02:13:10;2.00;;;1.90;;
4244;SDS011;2136;48.502;9.194;2023-08-06T02:15:41;2.90;;;2.50;;
4244;SDS011;2136;48.502;9.194;2023-08-06T02:18:08;3.27;;;2.33;;
4244;SDS011;2136;48.502;9.194;2023-08-06T02:20:35;4.07;;;2.27;;
4244;SDS011;2136;48.502;9.194;2023-08-06T02:23:02;2.37;;;2.20;;
4244;SDS011;2136;48.502;9.194;2023-08-06T02:25:29;3.83;;;2.30;;
4244;SDS011;2136;48.502;9.194;2023-08-06T02:27:57;2.00;;;1.90;;
4244;SDS011;2136;48.502;9.194;2023-08-06T02:30:24;7.10;;;2.70;;
4244;SDS011;2136;48.502;9.194;2023-08-06T02:32:50;2.83;;;2.50;;
4244;SDS011;2136;48.502;9.194;2023-08-06T02:35:17;3.30;;;2.00;;
4244;SDS011;2136;48.502;9.194;2023-08-06T02:37:44;3.37;;;2.13;;
4244;SDS011;2136;48.502;9.194;2023-08-06T02:40:11;2.17;;;2.07;;
4244;SDS011;2136;48.502;9.194;2023-08-06T02:42:38;3.07;;;2.30;;
4244;SDS011;2136;48.502;9.194;2023-08-06T02:45:06;2.90;;;2.47;;
4244;SDS011;2136;48.502;9.194;2023-08-06T02:47:34;3.17;;;2.80;;
4244;SDS011;2136;48.502;9.194;2023-08-06T02:50:01;2.97;;;2.67;;
4244;SDS011;2136;48.502;9.194;2023-08-06T02:52:27;2.30;;;2.10;;
4244;SDS011;2136;48.502;9.194;2023-08-06T02:54:54;3.13;;;2.70;;
4244;SDS011;2136;48.502;9.194;2023-08-06T02:57:23;2.73;;;2.40;;
4244;SDS011;2136;48.502;9.194;2023-08-06T02:59:49;2.63;;;2.33;;
4244;SDS011;2136;48.502;9.194;2023-08-06T03:02:18;2.77;;;2.30;;
4244;SDS011;2136;48.502;9.194;2023-08-06T03:04:44;5.17;;;2.43;;
4244;SDS011;2136;48.502;9.194;2023-08-06T03:07:11;2.50;;;2.30;;
4244;SDS011;2136;48.502;9.194;2023-08-06T03:09:38;7.43;;;3.10;;
4244;SDS011;2136;48.502;9.194;2023-08-06T03:12:05;2.80;;;2.60;;
4244;SDS011;2136;48.502;9.194;2023-08-06T03:14:33;2.30;;;2.20;;
4244;SDS011;2136;48.502;9.194;2023-08-06T03:16:59;2.40;;;2.20;;
4244;SDS011;2136;48.502;9.194;2023-08-06T03:19:27;1.70;;;1.60;;
4244;SDS011;2136;48.502;9.194;2023-08-06T03:21:54;7.40;;;2.67;;
4244;SDS011;2136;48.502;9.194;2023-08-06T03:24:21;2.60;;;2.30;;
4244;SDS011;2136;48.502;9.194;2023-08-06T03:26:48;1.70;;;1.60;;
4244;SDS011;2136;48.502;9.194;2023-08-06T03:29:15;3.03;;;1.93;;
4244;SDS011;2136;48.502;9.194;2023-08-06T03:31:41;4.33;;;2.20;;
4244;SDS011;2136;48.502;9.194;2023-08-06T03:34:08;4.10;;;1.90;;
4244;SDS011;2136;48.502;9.194;2023-08-06T03:36:36;1.50;;;1.40;;
4244;SDS011;2136;48.502;9.194;2023-08-06T03:39:03;6.07;;;2.17;;
4244;SDS011;2136;48.502;9.194;2023-08-06T03:41:30;1.70;;;1.60;;
4244;SDS011;2136;48.502;9.194;2023-08-06T03:43:57;2.83;;;1.73;;
4244;SDS011;2136;48.502;9.194;2023-08-06T03:46:23;1.63;;;1.50;;
4244;SDS011;2136;48.502;9.194;2023-08-06T03:48:50;4.13;;;1.80;;
4244;SDS011;2136;48.502;9.194;2023-08-06T03:51:17;4.33;;;1.90;;
4244;SDS011;2136;48.502;9.194;2023-08-06T03:53:45;3.33;;;2.20;;
4244;SDS011;2136;48.502;9.194;2023-08-06T03:56:12;1.70;;;1.60;;
4244;SDS011;2136;48.502;9.194;2023-08-06T03:58:39;2.57;;;1.63;;
4244;SDS011;2136;48.502;9.194;2023-08-06T04:01:06;1.77;;;1.53;;
4244;SDS011;2136;48.502;9.194;2023-08-06T04:03:33;2.43;;;1.47;;
4244;SDS011;2136;48.502;9.194;2023-08-06T04:06:01;2.07;;;1.47;;
4244;SDS011;2136;48.502;9.194;2023-08-06T04:08:28;8.63;;;1.70;;
4244;SDS011;2136;48.502;9.194;2023-08-06T04:10:56;5.10;;;1.70;;
4244;SDS011;2136;48.502;9.194;2023-08-06T04:13:23;1.80;;;1.70;;
4244;SDS011;2136;48.502;9.194;2023-08-06T04:15:50;4.60;;;1.57;;
4244;SDS011;2136;48.502;9.194;2023-08-06T04:18:17;3.47;;;1.40;;
4244;SDS011;2136;48.502;9.194;2023-08-06T04:20:44;1.63;;;1.33;;
4244;SDS011;2136;48.502;9.194;2023-08-06T04:23:11;3.60;;;1.30;;
4244;SDS011;2136;48.502;9.194;2023-08-06T04:25:37;2.47;;;1.77;;
4244;SDS011;2136;48.502;9.194;2023-08-06T04:28:06;3.57;;;1.60;;
4244;SDS011;2136;48.502;9.194;2023-08-06T04:30:33;2.70;;;1.30;;
4244;SDS011;2136;48.502;9.194;2023-08-06T04:33:00;3.93;;;1.97;;
4244;SDS011;2136;48.502;9.194;2023-08-06T04:35:26;1.60;;;1.37;;
4244;SDS011;2136;48.502;9.194;2023-08-06T04:37:53;4.77;;;1.43;;
4244;SDS011;2136;48.502;9.194;2023-08-06T04:40:20;2.27;;;1.47;;
4244;SDS011;2136;48.502;9.194;2023-08-06T04:42:47;4.10;;;1.90;;
4244;SDS011;2136;48.502;9.194;2023-08-06T04:45:15;2.00;;;1.50;;
4244;SDS011;2136;48.502;9.194;2023-08-06T04:47:42;1.50;;;1.40;;
4244;SDS011;2136;48.502;9.194;2023-08-06T04:50:09;2.47;;;1.83;;
4244;SDS011;2136;48.502;9.194;2023-08-06T04:52:37;2.30;;;1.33;;
4244;SDS011;2136;48.502;9.194;2023-08-06T04:55:04;2.47;;;1.50;;
4244;SDS011;2136;48.502;9.194;2023-08-06T04:57:31;2.97;;;1.30;;
4244;SDS011;2136;48.502;9.194;2023-08-06T04:59:58;4.00;;;1.47;;
4244;SDS011;2136;48.502;9.194;2023-08-06T05:02:26;2.70;;;1.40;;
4244;SDS011;2136;48.502;9.194;2023-08-06T05:04:53;9.40;;;1.20;;
4244;SDS011;2136;48.502;9.194;2023-08-06T05:07:20;1.30;;;1.20;;
4244;SDS011;2136;48.502;9.194;2023-08-06T05:09:47;3.03;;;1.57;;
4244;SDS011;2136;48.502;9.194;2023-08-06T05:12:14;2.70;;;1.40;;
4244;SDS011;2136;48.502;9.194;2023-08-06T05:14:40;4.33;;;1.50;;
4244;SDS011;2136;48.502;9.194;2023-08-06T05:17:07;1.40;;;1.30;;
4244;SDS011;2136;48.502;9.194;2023-08-06T05:19:35;3.10;;;1.07;;
4244;SDS011;2136;48.502;9.194;2023-08-06T05:22:02;3.40;;;1.40;;
4244;SDS011;2136;48.502;9.194;2023-08-06T05:24:30;1.60;;;1.43;;
4244;SDS011;2136;48.502;9.194;2023-08-06T05:26:56;2.57;;;1.37;;
4244;SDS011;2136;48.502;9.194;2023-08-06T05:29:23;1.33;;;1.23;;
4244;SDS011;2136;48.502;9.194;2023-08-06T05:31:50;2.57;;;1.20;;
4244;SDS011;2136;48.502;9.194;2023-08-06T05:34:17;3.63;;;1.20;;
4244;SDS011;2136;48.502;9.194;2023-08-06T05:36:45;1.93;;;1.10;;
4244;SDS011;2136;48.502;9.194;2023-08-06T05:39:11;1.30;;;1.20;;
4244;SDS011;2136;48.502;9.194;2023-08-06T05:41:38;1.10;;;1.00;;
4244;SDS011;2136;48.502;9.194;2023-08-06T05:44:05;1.63;;;1.40;;
4244;SDS011;2136;48.502;9.194;2023-08-06T05:46:32;1.73;;;1.10;;
4244;SDS011;2136;48.502;9.194;2023-08-06T05:48:59;2.77;;;1.17;;
4244;SDS011;2136;48.502;9.194;2023-08-06T05:51:26;1.23;;;0.93;;
4244;SDS011;2136;48.502;9.194;2023-08-06T05:53:54;1.10;;;1.00;;
4244;SDS011;2136;48.502;9.194;2023-08-06T05:56:21;1.17;;;0.80;;
4244;SDS011;2136;48.502;9.194;2023-08-06T05:58:48;1.30;;;1.20;;
4244;SDS011;2136;48.502;9.194;2023-08-06T06:01:18;2.07;;;0.80;;
4244;SDS011;2136;48.502;9.194;2023-08-06T06:03:44;1.17;;;0.80;;
4244;SDS011;2136;48.502;9.194;2023-08-06T06:06:11;0.80;;;0.80;;
4244;SDS011;2136;48.502;9.194;2023-08-06T06:08:38;2.83;;;0.80;;
4244;SDS011;2136;48.502;9.194;2023-08-06T06:11:06;4.57;;;0.80;;
4244;SDS011;2136;48.502;9.194;2023-08-06T06:13:33;1.53;;;0.80;;
4244;SDS011;2136;48.502;9.194;2023-08-06T06:16:01;1.07;;;0.90;;
4244;SDS011;2136;48.502;9.194;2023-08-06T06:18:28;0.80;;;0.80;;
4244;SDS011;2136;48.502;9.194;2023-08-06T06:20:54;1.03;;;0.83;;
4244;SDS011;2136;48.502;9.194;2023-08-06T06:23:21;3.40;;;0.90;;
4244;SDS011;2136;48.502;9.194;2023-08-06T06:25:48;0.70;;;0.70;;
4244;SDS011;2136;48.502;9.194;2023-08-06T06:28:18;2.47;;;0.87;;
4244;SDS011;2136;48.502;9.194;2023-08-06T06:30:45;1.73;;;0.90;;
4244;SDS011;2136;48.502;9.194;2023-08-06T06:33:11;2.50;;;0.80;;
4244;SDS011;2136;48.502;9.194;2023-08-06T06:35:38;5.00;;;0.90;;
4244;SDS011;2136;48.502;9.194;2023-08-06T06:38:05;1.50;;;0.90;;
4244;SDS011;2136;48.502;9.194;2023-08-06T06:40:32;2.47;;;1.23;;
4244;SDS011;2136;48.502;9.194;2023-08-06T06:42:59;0.70;;;0.70;;
4244;SDS011;2136;48.502;9.194;2023-08-06T06:45:27;1.37;;;0.80;;
4244;SDS011;2136;48.502;9.194;2023-08-06T06:47:54;7.60;;;1.00;;
4244;SDS011;2136;48.502;9.194;2023-08-06T06:50:20;2.10;;;1.00;;
4244;SDS011;2136;48.502;9.194;2023-08-06T06:52:47;1.07;;;0.90;;
4244;SDS011;2136;48.502;9.194;2023-08-06T06:55:14;0.80;;;0.80;;
4244;SDS011;2136;48.502;9.194;2023-08-06T06:57:41;0.80;;;0.80;;
4244;SDS011;2136;48.502;9.194;2023-08-06T07:00:08;1.57;;;0.80;;
4244;SDS011;2136;48.502;9.194;2023-08-06T07:02:37;0.60;;;0.60;;
4244;SDS011;2136;48.502;9.194;2023-08-06T07:05:04;0.87;;;0.87;;
4244;SDS011;2136;48.502;9.194;2023-08-06T07:07:32;0.70;;;0.70;;
4244;SDS011;2136;48.502;9.194;2023-08-06T07:09:59;1.00;;;0.80;;
4244;SDS011;2136;48.502;9.194;2023-08-06T07:12:26;0.67;;;0.67;;
4244;SDS011;2136;48.502;9.194;2023-08-06T07:14:52;0.60;;;0.60;;
4244;SDS011;2136;48.502;9.194;2023-08-06T07:17:19;0.60;;;0.60;;
4244;SDS011;2136;48.502;9.194;2023-08-06T07:19:47;1.43;;;0.70;;
4244;SDS011;2136;48.502;9.194;2023-08-06T07:22:14;1.63;;;0.90;;
4244;SDS011;2136;48.502;9.194;2023-08-06T07:24:41;1.80;;;1.53;;
4244;SDS011;2136;48.502;9.194;2023-08-06T07:27:08;1.43;;;0.77;;
4244;SDS011;2136;48.502;9.194;2023-08-06T07:29:35;0.70;;;0.70;;
4244;SDS011;2136;48.502;9.194;2023-08-06T07:32:01;1.10;;;0.83;;
4244;SDS011;2136;48.502;9.194;2023-08-06T07:34:28;0.63;;;0.63;;
4244;SDS011;2136;48.502;9.194;2023-08-06T07:36:56;1.17;;;0.60;;
4244;SDS011;2136;48.502;9.194;2023-08-06T07:39:23;1.97;;;0.90;;
4244;SDS011;2136;48.502;9.194;2023-08-06T07:41:50;2.20;;;1.10;;
4244;SDS011;2136;48.502;9.194;2023-08-06T07:44:17;1.00;;;0.80;;
4244;SDS011;2136;48.502;9.194;2023-08-06T07:46:44;0.70;;;0.70;;
4244;SDS011;2136;48.502;9.194;2023-08-06T07:49:10;1.17;;;0.60;;
4244;SDS011;2136;48.502;9.194;2023-08-06T07:51:37;0.73;;;0.73;;
4244;SDS011;2136;48.502;9.194;2023-08-06T07:54:06;0.93;;;0.60;;
4244;SDS011;2136;48.502;9.194;2023-08-06T07:56:33;0.60;;;0.60;;
4244;SDS011;2136;48.502;9.194;2023-08-06T07:59:01;0.60;;;0.60;;
4244;SDS011;2136;48.502;9.194;2023-08-06T08:01:27;0.70;;;0.60;;
4244;SDS011;2136;48.502;9.194;2023-08-06T08:03:54;0.50;;;0.50;;
4244;SDS011;2136;48.502;9.194;2023-08-06T08:06:21;0.60;;;0.50;;
4244;SDS011;2136;48.502;9.194;2023-08-06T08:08:48;0.70;;;0.70;;
4244;SDS011;2136;48.502;9.194;2023-08-06T08:11:16;1.47;;;0.60;;
4244;SDS011;2136;48.502;9.194;2023-08-06T08:13:43;0.70;;;0.70;;
4244;SDS011;2136;48.502;9.194;2023-08-06T08:16:10;0.60;;;0.60;;
4244;SDS011;2136;48.502;9.194;2023-08-06T08:18:37;0.50;;;0.50;;
4244;SDS011;2136;48.502;9.194;2023-08-06T08:21:04;1.27;;;0.70;;
4244;SDS011;2136;48.502;9.194;2023-08-06T08:23:30;0.70;;;0.60;;
4244;SDS011;2136;48.502;9.194;2023-08-06T08:25:58;0.50;;;0.50;;
4244;SDS011;2136;48.502;9.194;2023-08-06T08:28:28;0.60;;;0.60;;
4244;SDS011;2136;48.502;9.194;2023-08-06T08:30:56;2.73;;;0.70;;
4244;SDS011;2136;48.502;9.194;2023-08-06T08:33:23;1.37;;;0.60;;
4244;SDS011;2136;48.502;9.194;2023-08-06T08:35:49;0.53;;;0.53;;
4244;SDS011;2136;48.502;9.194;2023-08-06T08:38:16;0.40;;;0.40;;
4244;SDS011;2136;48.502;9.194;2023-08-06T08:40:45;0.73;;;0.60;;
4244;SDS011;2136;48.502;9.194;2023-08-06T08:43:13;0.57;;;0.57;;
4244;SDS011;2136;48.502;9.194;2023-08-06T08:45:42;0.70;;;0.70;;
4244;SDS011;2136;48.502;9.194;2023-08-06T08:48:12;0.57;;;0.57;;
4244;SDS011;2136;48.502;9.194;2023-08-06T08:50:40;0.50;;;0.50;;
4244;SDS011;2136;48.502;9.194;2023-08-06T08:53:09;0.50;;;0.50;;
4244;SDS011;2136;48.502;9.194;2023-08-06T08:55:37;0.67;;;0.50;;
4244;SDS011;2136;48.502;9.194;2023-08-06T08:58:05;0.87;;;0.80;;
4244;SDS011;2136;48.502;9.194;2023-08-06T09:00:32;0.87;;;0.50;;
4244;SDS011;2136;48.502;9.194;2023-08-06T09:03:02;0.87;;;0.73;;
4244;SDS011;2136;48.502;9.194;2023-08-06T09:05:32;1.33;;;0.50;;
4244;SDS011;2136;48.502;9.194;2023-08-06T09:08:01;0.50;;;0.50;;
4244;SDS011;2136;48.502;9.194;2023-08-06T09:10:29;0.90;;;0.50;;
4244;SDS011;2136;48.502;9.194;2023-08-06T09:12:57;1.47;;;0.50;;
4244;SDS011;2136;48.502;9.194;2023-08-06T09:15:26;1.03;;;0.93;;
4244;SDS011;2136;48.502;9.194;2023-08-06T09:17:53;0.60;;;0.60;;
4244;SDS011;2136;48.502;9.194;2023-08-06T09:20:22;0.50;;;0.50;;
4244;SDS011;2136;48.502;9.194;2023-08-06T09:22:49;0.57;;;0.57;;
4244;SDS011;2136;48.502;9.194;2023-08-06T09:25:20;0.50;;;0.50;;
4244;SDS011;2136;48.502;9.194;2023-08-06T09:27:49;0.50;;;0.50;;
4244;SDS011;2136;48.502;9.194;2023-08-06T09:30:28;2.10;;;0.50;;
4244;SDS011;2136;48.502;9.194;2023-08-06T09:32:56;0.50;;;0.50;;
4244;SDS011;2136;48.502;9.194;2023-08-06T09:35:24;1.73;;;0.50;;
4244;SDS011;2136;48.502;9.194;2023-08-06T09:37:51;0.60;;;0.60;;
4244;SDS011;2136;48.502;9.194;2023-08-06T09:40:24;0.50;;;0.50;;
4244;SDS011;2136;48.502;9.194;2023-08-06T09:42:52;0.60;;;0.60;;
4244;SDS011;2136;48.502;9.194;2023-08-06T09:45:19;0.50;;;0.50;;
4244;SDS011;2136;48.502;9.194;2023-08-06T09:47:47;0.60;;;0.60;;
4244;SDS011;2136;48.502;9.194;2023-08-06T09:50:15;0.50;;;0.50;;
4244;SDS011;2136;48.502;9.194;2023-08-06T09:52:44;0.50;;;0.50;;
4244;SDS011;2136;48.502;9.194;2023-08-06T09:55:12;0.57;;;0.50;;
4244;SDS011;2136;48.502;9.194;2023-08-06T09:57:40;0.50;;;0.50;;
4244;SDS011;2136;48.502;9.194;2023-08-06T10:00:07;2.63;;;0.50;;
4244;SDS011;2136;48.502;9.194;2023-08-06T10:02:35;0.60;;;0.60;;
4244;SDS011;2136;48.502;9.194;2023-08-06T10:05:04;1.10;;;0.70;;
4244;SDS011;2136;48.502;9.194;2023-08-06T10:07:31;1.07;;;0.50;;
4244;SDS011;2136;48.502;9.194;2023-08-06T10:10:00;0.70;;;0.50;;
4244;SDS011;2136;48.502;9.194;2023-08-06T10:12:29;0.50;;;0.50;;
4244;SDS011;2136;48.502;9.194;2023-08-06T10:15:00;0.50;;;0.50;;
4244;SDS011;2136;48.502;9.194;2023-08-06T10:17:30;0.70;;;0.50;;
4244;SDS011;2136;48.502;9.194;2023-08-06T10:19:59;0.60;;;0.60;;
4244;SDS011;2136;48.502;9.194;2023-08-06T10:22:26;0.50;;;0.50;;
4244;SDS011;2136;48.502;9.194;2023-08-06T10:24:53;0.60;;;0.60;;
4244;SDS011;2136;48.502;9.194;2023-08-06T10:27:23;0.73;;;0.60;;
4244;SDS011;2136;48.502;9.194;2023-08-06T10:29:56;0.50;;;0.50;;
4244;SDS011;2136;48.502;9.194;2023-08-06T10:32:46;0.50;;;0.50;;
4244;SDS011;2136;48.502;9.194;2023-08-06T10:35:27;0.60;;;0.60;;
4244;SDS011;2136;48.502;9.194;2023-08-06T10:37:57;0.50;;;0.50;;
4244;SDS011;2136;48.502;9.194;2023-08-06T10:40:25;0.53;;;0.53;;
4244;SDS011;2136;48.502;9.194;2023-08-06T10:42:53;0.60;;;0.60;;
4244;SDS011;2136;48.502;9.194;2023-08-06T10:45:20;0.80;;;0.80;;
4244;SDS011;2136;48.502;9.194;2023-08-06T10:47:49;1.60;;;1.50;;
4244;SDS011;2136;48.502;9.194;2023-08-06T10:50:16;0.50;;;0.50;;
4244;SDS011;2136;48.502;9.194;2023-08-06T10:52:43;0.50;;;0.50;;
4244;SDS011;2136;48.502;9.194;2023-08-06T10:55:11;4.30;;;0.60;;
4244;SDS011;2136;48.502;9.194;2023-08-06T10:57:39;0.50;;;0.50;;
4244;SDS011;2136;48.502;9.194;2023-08-06T11:00:07;0.50;;;0.50;;
4244;SDS011;2136;48.502;9.194;2023-08-06T11:02:37;0.87;;;0.70;;
4244;SDS011;2136;48.502;9.194;2023-08-06T11:05:05;0.50;;;0.50;;
4244;SDS011;2136;48.502;9.194;2023-08-06T11:07:32;0.50;;;0.50;;
4244;SDS011;2136;48.502;9.194;2023-08-06T11:10:03;0.40;;;0.40;;
4244;SDS011;2136;48.502;9.194;2023-08-06T11:12:31;1.80;;;0.93;;
4244;SDS011;2136;48.502;9.194;2023-08-06T11:15:01;3.23;;;0.60;;
4244;SDS011;2136;48.502;9.194;2023-08-06T11:17:31;0.50;;;0.50;;
4244;SDS011;2136;48.502;9.194;2023-08-06T11:19:59;0.90;;;0.60;;
4244;SDS011;2136;48.502;9.194;2023-08-06T11:22:26;0.97;;;0.70;;
4244;SDS011;2136;48.502;9.194;2023-08-06T11:24:53;0.60;;;0.60;;
4244;SDS011;2136;48.502;9.194;2023-08-06T11:27:21;0.63;;;0.63;;
4244;SDS011;2136;48.502;9.194;2023-08-06T11:29:48;0.60;;;0.60;;
4244;SDS011;2136;48.502;9.194;2023-08-06T11:32:14;1.90;;;0.50;;
4244;SDS011;2136;48.502;9.194;2023-08-06T11:34:43;0.70;;;0.50;;
4244;SDS011;2136;48.502;9.194;2023-08-06T11:37:10;0.60;;;0.60;;
4244;SDS011;2136;48.502;9.194;2023-08-06T11:39:37;0.60;;;0.60;;
4244;SDS011;2136;48.502;9.194;2023-08-06T11:42:04;0.60;;;0.60;;
4244;SDS011;2136;48.502;9.194;2023-08-06T11:44:32;3.43;;;0.70;;
4244;SDS011;2136;48.502;9.194;2023-08-06T11:47:01;3.27;;;1.00;;
4244;SDS011;2136;48.502;9.194;2023-08-06T11:49:37;2.40;;;0.70;;
4244;SDS011;2136;48.502;9.194;2023-08-06T11:52:10;2.30;;;0.70;;
4244;SDS011;2136;48.502;9.194;2023-08-06T11:54:41;0.70;;;0.70;;
4244;SDS011;2136;48.502;9.194;2023-08-06T11:57:08;0.80;;;0.80;;
4244;SDS011;2136;48.502;9.194;2023-08-06T11:59:35;0.80;;;0.80;;
4244;SDS011;2136;48.502;9.194;2023-08-06T12:02:03;0.70;;;0.70;;
4244;SDS011;2136;48.502;9.194;2023-08-06T12:04:31;1.10;;;0.90;;
4244;SDS011;2136;48.502;9.194;2023-08-06T12:07:18;1.53;;;0.83;;
4244;SDS011;2136;48.502;9.194;2023-08-06T12:09:45;0.60;;;0.60;;
4244;SDS011;2136;48.502;9.194;2023-08-06T12:12:11;0.80;;;0.80;;
4244;SDS011;2136;48.502;9.194;2023-08-06T12:14:39;0.77;;;0.77;;
4244;SDS011;2136;48.502;9.194;2023-08-06T12:17:05;0.70;;;0.70;;
4244;SDS011;2136;48.502;9.194;2023-08-06T12:19:32;0.60;;;0.60;;
4244;SDS011;2136;48.502;9.194;2023-08-06T12:21:59;0.57;;;0.57;;
4244;SDS011;2136;48.502;9.194;2023-08-06T12:24:27;0.60;;;0.60;;
4244;SDS011;2136;48.502;9.194;2023-08-06T12:26:56;0.77;;;0.77;;
4244;SDS011;2136;48.502;9.194;2023-08-06T12:29:23;1.90;;;0.80;;
4244;SDS011;2136;48.502;9.194;2023-08-06T12:31:51;1.07;;;1.00;;
4244;SDS011;2136;48.502;9.194;2023-08-06T12:34:17;0.77;;;0.77;;
4244;SDS011;2136;48.502;9.194;2023-08-06T12:36:44;1.43;;;0.90;;
4244;SDS011;2136;48.502;9.194;2023-08-06T12:39:11;2.63;;;1.20;;
4244;SDS011;2136;48.502;9.194;2023-08-06T12:41:39;1.10;;;1.00;;
4244;SDS011;2136;48.502;9.194;2023-08-06T12:44:06;1.07;;;1.07;;
4244;SDS011;2136;48.502;9.194;2023-08-06T12:46:33;1.43;;;1.33;;
4244;SDS011;2136;48.502;9.194;2023-08-06T12:49:00;1.37;;;1.03;;
4244;SDS011;2136;48.502;9.194;2023-08-06T12:51:27;1.53;;;0.97;;
4244;SDS011;2136;48.502;9.194;2023-08-06T12:53:53;3.37;;;0.90;;
4244;SDS011;2136;48.502;9.194;2023-08-06T12:56:20;1.13;;;1.13;;
4244;SDS011;2136;48.502;9.194;2023-08-06T12:58:48;0.90;;;0.90;;
4244;SDS011;2136;48.502;9.194;2023-08-06T13:01:15;1.57;;;0.90;;
4244;SDS011;2136;48.502;9.194;2023-08-06T13:03:42;1.30;;;0.80;;
4244;SDS011;2136;48.502;9.194;2023-08-06T13:06:09;0.83;;;0.83;;
4244;SDS011;2136;48.502;9.194;2023-08-06T13:08:37;0.80;;;0.70;;
4244;SDS011;2136;48.502;9.194;2023-08-06T13:11:03;0.97;;;0.97;;
4244;SDS011;2136;48.502;9.194;2023-08-06T13:13:31;1.67;;;1.10;;
4244;SDS011;2136;48.502;9.194;2023-08-06T13:15:59;1.10;;;1.00;;
4244;SDS011;2136;48.502;9.194;2023-08-06T13:18:26;1.43;;;1.00;;
4244;SDS011;2136;48.502;9.194;2023-08-06T13:20:54;0.90;;;0.90;;
4244;SDS011;2136;48.502;9.194;2023-08-06T13:23:21;1.40;;;0.90;;
4244;SDS011;2136;48.502;9.194;2023-08-06T13:25:48;0.80;;;0.80;;
4244;SDS011;2136;48.502;9.194;2023-08-06T13:28:15;0.90;;;0.90;;
4244;SDS011;2136;48.502;9.194;2023-08-06T13:30:41;3.33;;;0.70;;
4244;SDS011;2136;48.502;9.194;2023-08-06T13:33:10;0.80;;;0.80;;
4244;SDS011;2136;48.502;9.194;2023-08-06T13:35:37;0.87;;;0.87;;
4244;SDS011;2136;48.502;9.194;2023-08-06T13:38:04;0.97;;;0.80;;
4244;SDS011;2136;48.502;9.194;2023-08-06T13:40:32;1.03;;;1.03;;
4244;SDS011;2136;48.502;9.194;2023-08-06T13:42:59;0.80;;;0.80;;
4244;SDS011;2136;48.502;9.194;2023-08-06T13:45:26;1.27;;;0.90;;
4244;SDS011;2136;48.502;9.194;2023-08-06T13:47:53;0.90;;;0.90;;
4244;SDS011;2136;48.502;9.194;2023-08-06T13:50:22;0.70;;;0.70;;
4244;SDS011;2136;48.502;9.194;2023-08-06T13:52:50;0.80;;;0.80;;
4244;SDS011;2136;48.502;9.194;2023-08-06T13:55:18;0.80;;;0.80;;
4244;SDS011;2136;48.502;9.194;2023-08-06T13:57:45;0.70;;;0.70;;
4244;SDS011;2136;48.502;9.194;2023-08-06T14:00:12;0.77;;;0.77;;
4244;SDS011;2136;48.502;9.194;2023-08-06T14:02:39;0.63;;;0.63;;
4244;SDS011;2136;48.502;9.194;2023-08-06T14:05:06;1.17;;;0.90;;
4244;SDS011;2136;48.502;9.194;2023-08-06T14:07:35;0.83;;;0.83;;
4244;SDS011;2136;48.502;9.194;2023-08-06T14:10:01;1.97;;;0.93;;
4244;SDS011;2136;48.502;9.194;2023-08-06T14:12:29;0.77;;;0.77;;
4244;SDS011;2136;48.502;9.194;2023-08-06T14:14:56;0.77;;;0.70;;
4244;SDS011;2136;48.502;9.194;2023-08-06T14:17:24;0.83;;;0.83;;
4244;SDS011;2136;48.502;9.194;2023-08-06T14:19:51;0.60;;;0.60;;
4244;SDS011;2136;48.502;9.194;2023-08-06T14:22:17;0.77;;;0.70;;
4244;SDS011;2136;48.502;9.194;2023-08-06T14:24:45;0.57;;;0.57;;
4244;SDS011;2136;48.502;9.194;2023-08-06T14:27:13;0.70;;;0.70;;
4244;SDS011;2136;48.502;9.194;2023-08-06T14:29:39;0.70;;;0.70;;
4244;SDS011;2136;48.502;9.194;2023-08-06T14:32:07;0.60;;;0.60;;
4244;SDS011;2136;48.502;9.194;2023-08-06T14:34:35;0.90;;;0.63;;
4244;SDS011;2136;48.502;9.194;2023-08-06T14:37:02;0.60;;;0.60;;
4244;SDS011;2136;48.502;9.194;2023-08-06T14:39:29;0.60;;;0.60;;
4244;SDS011;2136;48.502;9.194;2023-08-06T14:41:57;0.80;;;0.63;;
4244;SDS011;2136;48.502;9.194;2023-08-06T14:44:24;1.00;;;0.70;;
4244;SDS011;2136;48.502;9.194;2023-08-06T14:46:51;0.70;;;0.70;;
4244;SDS011;2136;48.502;9.194;2023-08-06T14:49:18;0.70;;;0.70;;
4244;SDS011;2136;48.502;9.194;2023-08-06T14:51:45;0.87;;;0.87;;
4244;SDS011;2136;48.502;9.194;2023-08-06T14:54:11;0.80;;;0.80;;
4244;SDS011;2136;48.502;9.194;2023-08-06T14:56:38;0.60;;;0.60;;
4244;SDS011;2136;48.502;9.194;2023-08-06T14:59:06;0.70;;;0.70;;
4244;SDS011;2136;48.502;9.194;2023-08-06T15:01:33;0.80;;;0.80;;
4244;SDS011;2136;48.502;9.194;2023-08-06T15:04:00;0.83;;;0.83;;
4244;SDS011;2136;48.502;9.194;2023-08-06T15:06:27;3.33;;;0.80;;
4244;SDS011;2136;48.502;9.194;2023-08-06T15:08:53;0.80;;;0.80;;
4244;SDS011;2136;48.502;9.194;2023-08-06T15:11:23;4.47;;;1.60;;
4244;SDS011;2136;48.502;9.194;2023-08-06T15:13:50;1.27;;;1.17;;
4244;SDS011;2136;48.502;9.194;2023-08-06T15:16:18;1.93;;;1.63;;
4244;SDS011;2136;48.502;9.194;2023-08-06T15:18:45;3.00;;;2.70;;